sensor_id;sensor_type;location;lat;lon;timestamp;P1;durP1;ratioP1;P2;durP2;ratioP2
48859;SDS011;34679;51.436;-2.518;2024-02-15T00:02:06;1.70;;;0.73;;
48859;SDS011;34679;51.436;-2.518;2024-02-15T00:04:32;7.03;;;0.93;;
48859;SDS011;34679;51.436;-2.518;2024-02-15T00:06:58;0.98;;;0.50;;
48859;SDS011;34679;51.436;-2.518;2024-02-15T00:09:25;0.80;;;0.40;;
48859;SDS011;34679;51.436;-2.518;2024-02-15T00:11:50;2.55;;;0.63;;
48859;SDS011;34679;51.436;-2.518;2024-02-15T00:14:16;1.40;;;0.45;;
48859;SDS011;34679;51.436;-2.518;2024-02-15T00:16:42;1.27;;;0.70;;
48859;SDS011;34679;51.436;-2.518;2024-02-15T00:19:07;2.88;;;0.75;;
48859;SDS011;34679;51.436;-2.518;2024-02-15T00:21:33;2.33;;;0.70;;
48859;SDS011;34679;51.436;-2.518;2024-02-15T00:24:00;1.70;;;0.70;;
48859;SDS011;34679;51.436;-2.518;2024-02-15T00:26:26;1.85;;;0.80;;
48859;SDS011;34679;51.436;-2.518;2024-02-15T00:28:52;4.07;;;0.95;;
48859;SDS011;34679;51.436;-2.518;2024-02-15T00:31:17;2.47;;;1.08;;
48859;SDS011;34679;51.436;-2.518;2024-02-15T00:33:43;1.63;;;1.00;;
48859;SDS011;34679;51.436;-2.518;2024-02-15T00:36:09;0.93;;;0.70;;
48859;SDS011;34679;51.436;-2.518;2024-02-15T00:38:35;1.58;;;1.00;;
48859;SDS011;34679;51.436;-2.518;2024-02-15T00:41:02;3.15;;;0.98;;
48859;SDS011;34679;51.436;-2.518;2024-02-15T00:43:27;1.40;;;1.00;;
48859;SDS011;34679;51.436;-2.518;2024-02-15T00:45:54;1.25;;;1.15;;
48859;SDS011;34679;51.436;-2.518;2024-02-15T00:48:19;1.88;;;1.10;;
48859;SDS011;34679;51.436;-2.518;2024-02-15T00:50:45;0.95;;;0.77;;
48859;SDS011;34679;51.436;-2.518;2024-02-15T00:53:11;1.88;;;1.30;;
48859;SDS011;34679;51.436;-2.518;2024-02-15T00:55:37;3.40;;;1.42;;
48859;SDS011;34679;51.436;-2.518;2024-02-15T00:58:02;1.58;;;1.10;;
48859;SDS011;34679;51.436;-2.518;2024-02-15T01:00:29;0.90;;;0.90;;
48859;SDS011;34679;51.436;-2.518;2024-02-15T01:02:55;1.48;;;1.00;;
48859;SDS011;34679;51.436;-2.518;2024-02-15T01:05:21;1.30;;;1.00;;
48859;SDS011;34679;51.436;-2.518;2024-02-15T01:07:47;1.27;;;1.02;;
48859;SDS011;34679;51.436;-2.518;2024-02-15T01:10:15;1.00;;;0.70;;
48859;SDS011;34679;51.436;-2.518;2024-02-15T01:12:41;1.08;;;0.77;;
48859;SDS011;34679;51.436;-2.518;2024-02-15T01:15:07;0.50;;;0.47;;
48859;SDS011;34679;51.436;-2.518;2024-02-15T01:17:33;1.02;;;0.70;;
48859;SDS011;34679;51.436;-2.518;2024-02-15T01:19:59;0.47;;;0.47;;
48859;SDS011;34679;51.436;-2.518;2024-02-15T01:22:25;1.20;;;1.05;;
48859;SDS011;34679;51.436;-2.518;2024-02-15T01:24:52;0.60;;;0.60;;
48859;SDS011;34679;51.436;-2.518;2024-02-15T01:27:18;3.15;;;0.60;;
48859;SDS011;34679;51.436;-2.518;2024-02-15T01:29:44;1.52;;;0.60;;
48859;SDS011;34679;51.436;-2.518;2024-02-15T01:32:10;0.70;;;0.60;;
48859;SDS011;34679;51.436;-2.518;2024-02-15T01:34:36;0.90;;;0.90;;
48859;SDS011;34679;51.436;-2.518;2024-02-15T01:37:01;0.88;;;0.82;;
48859;SDS011;34679;51.436;-2.518;2024-02-15T01:39:27;1.35;;;1.00;;
48859;SDS011;34679;51.436;-2.518;2024-02-15T01:41:53;0.98;;;0.98;;
48859;SDS011;34679;51.436;-2.518;2024-02-15T01:44:21;1.77;;;0.80;;
48859;SDS011;34679;51.436;-2.518;2024-02-15T01:46:49;1.40;;;1.10;;
48859;SDS011;34679;51.436;-2.518;2024-02-15T01:49:20;0.93;;;0.82;;
48859;SDS011;34679;51.436;-2.518;2024-02-15T01:51:47;0.82;;;0.70;;
48859;SDS011;34679;51.436;-2.518;2024-02-15T01:54:17;0.52;;;0.52;;
48859;SDS011;34679;51.436;-2.518;2024-02-15T01:56:44;2.15;;;0.60;;
48859;SDS011;34679;51.436;-2.518;2024-02-15T01:59:11;0.50;;;0.50;;
48859;SDS011;34679;51.436;-2.518;2024-02-15T02:01:40;0.68;;;0.68;;
48859;SDS011;34679;51.436;-2.518;2024-02-15T02:04:06;1.02;;;0.80;;
48859;SDS011;34679;51.436;-2.518;2024-02-15T02:06:33;1.80;;;0.90;;
48859;SDS011;34679;51.436;-2.518;2024-02-15T02:08:59;0.80;;;0.80;;
48859;SDS011;34679;51.436;-2.518;2024-02-15T02:11:27;1.17;;;1.15;;
48859;SDS011;34679;51.436;-2.518;2024-02-15T02:13:54;1.33;;;0.98;;
48859;SDS011;34679;51.436;-2.518;2024-02-15T02:16:38;1.52;;;0.80;;
48859;SDS011;34679;51.436;-2.518;2024-02-15T02:19:05;0.85;;;0.85;;
48859;SDS011;34679;51.436;-2.518;2024-02-15T02:21:37;0.85;;;0.85;;
48859;SDS011;34679;51.436;-2.518;2024-02-15T02:24:04;1.15;;;1.02;;
48859;SDS011;34679;51.436;-2.518;2024-02-15T02:26:37;1.10;;;1.00;;
48859;SDS011;34679;51.436;-2.518;2024-02-15T02:29:03;1.20;;;1.10;;
48859;SDS011;34679;51.436;-2.518;2024-02-15T02:31:33;1.25;;;1.20;;
48859;SDS011;34679;51.436;-2.518;2024-02-15T02:34:02;1.13;;;1.10;;
48859;SDS011;34679;51.436;-2.518;2024-02-15T02:36:28;1.65;;;1.20;;
48859;SDS011;34679;51.436;-2.518;2024-02-15T02:38:54;1.73;;;1.40;;
48859;SDS011;34679;51.436;-2.518;2024-02-15T02:41:25;1.73;;;1.52;;
48859;SDS011;34679;51.436;-2.518;2024-02-15T02:43:51;1.50;;;1.40;;
48859;SDS011;34679;51.436;-2.518;2024-02-15T02:46:16;1.50;;;1.40;;
48859;SDS011;34679;51.436;-2.518;2024-02-15T02:48:42;1.25;;;1.15;;
48859;SDS011;34679;51.436;-2.518;2024-02-15T02:51:08;1.40;;;1.30;;
48859;SDS011;34679;51.436;-2.518;2024-02-15T02:53:33;1.48;;;1.38;;
48859;SDS011;34679;51.436;-2.518;2024-02-15T02:55:59;2.58;;;1.55;;
48859;SDS011;34679;51.436;-2.518;2024-02-15T02:58:25;1.67;;;1.58;;
48859;SDS011;34679;51.436;-2.518;2024-02-15T03:00:51;1.60;;;1.50;;
48859;SDS011;34679;51.436;-2.518;2024-02-15T03:03:17;2.65;;;1.38;;
48859;SDS011;34679;51.436;-2.518;2024-02-15T03:05:44;1.38;;;1.27;;
48859;SDS011;34679;51.436;-2.518;2024-02-15T03:08:12;1.63;;;1.52;;
48859;SDS011;34679;51.436;-2.518;2024-02-15T03:10:38;1.38;;;1.27;;
48859;SDS011;34679;51.436;-2.518;2024-02-15T03:13:05;2.10;;;1.88;;
48859;SDS011;34679;51.436;-2.518;2024-02-15T03:15:33;2.10;;;1.83;;
48859;SDS011;34679;51.436;-2.518;2024-02-15T03:17:59;2.30;;;2.00;;
48859;SDS011;34679;51.436;-2.518;2024-02-15T03:20:25;2.17;;;2.00;;
48859;SDS011;34679;51.436;-2.518;2024-02-15T03:22:52;3.30;;;1.90;;
48859;SDS011;34679;51.436;-2.518;2024-02-15T03:27:53;2.00;;;1.80;;
48859;SDS011;34679;51.436;-2.518;2024-02-15T03:30:20;2.28;;;1.95;;
48859;SDS011;34679;51.436;-2.518;2024-02-15T03:32:47;2.38;;;2.17;;
48859;SDS011;34679;51.436;-2.518;2024-02-15T03:35:20;2.50;;;2.15;;
48859;SDS011;34679;51.436;-2.518;2024-02-15T03:37:47;3.72;;;2.22;;
48859;SDS011;34679;51.436;-2.518;2024-02-15T03:40:16;2.58;;;2.33;;
48859;SDS011;34679;51.436;-2.518;2024-02-15T03:42:42;3.33;;;3.03;;
48859;SDS011;34679;51.436;-2.518;2024-02-15T03:45:08;3.78;;;3.00;;
48859;SDS011;34679;51.436;-2.518;2024-02-15T03:47:36;4.32;;;3.00;;
48859;SDS011;34679;51.436;-2.518;2024-02-15T03:50:05;8.27;;;2.45;;
48859;SDS011;34679;51.436;-2.518;2024-02-15T03:52:34;4.47;;;2.70;;
48859;SDS011;34679;51.436;-2.518;2024-02-15T03:55:00;3.20;;;2.50;;
48859;SDS011;34679;51.436;-2.518;2024-02-15T03:57:27;2.63;;;2.20;;
48859;SDS011;34679;51.436;-2.518;2024-02-15T03:59:53;3.67;;;2.60;;
48859;SDS011;34679;51.436;-2.518;2024-02-15T04:02:22;2.63;;;2.30;;
48859;SDS011;34679;51.436;-2.518;2024-02-15T04:04:49;3.25;;;2.15;;
48859;SDS011;34679;51.436;-2.518;2024-02-15T04:07:17;4.18;;;2.47;;
48859;SDS011;34679;51.436;-2.518;2024-02-15T04:09:44;2.83;;;2.20;;
48859;SDS011;34679;51.436;-2.518;2024-02-15T04:12:11;2.33;;;2.00;;
48859;SDS011;34679;51.436;-2.518;2024-02-15T04:14:37;3.28;;;2.47;;
48859;SDS011;34679;51.436;-2.518;2024-02-15T04:17:03;7.38;;;2.17;;
48859;SDS011;34679;51.436;-2.518;2024-02-15T04:19:30;2.83;;;2.17;;
48859;SDS011;34679;51.436;-2.518;2024-02-15T04:21:56;3.28;;;2.20;;
48859;SDS011;34679;51.436;-2.518;2024-02-15T04:24:22;2.92;;;1.85;;
48859;SDS011;34679;51.436;-2.518;2024-02-15T04:26:48;5.05;;;2.22;;
48859;SDS011;34679;51.436;-2.518;2024-02-15T04:29:14;6.43;;;1.95;;
48859;SDS011;34679;51.436;-2.518;2024-02-15T04:31:41;4.18;;;2.22;;
48859;SDS011;34679;51.436;-2.518;2024-02-15T04:34:07;4.45;;;2.10;;
48859;SDS011;34679;51.436;-2.518;2024-02-15T04:36:35;2.50;;;2.08;;
48859;SDS011;34679;51.436;-2.518;2024-02-15T04:39:01;3.95;;;2.25;;
48859;SDS011;34679;51.436;-2.518;2024-02-15T04:41:27;5.10;;;2.40;;
48859;SDS011;34679;51.436;-2.518;2024-02-15T04:43:54;3.22;;;2.33;;
48859;SDS011;34679;51.436;-2.518;2024-02-15T04:46:19;2.53;;;1.90;;
48859;SDS011;34679;51.436;-2.518;2024-02-15T04:48:48;2.75;;;1.95;;
48859;SDS011;34679;51.436;-2.518;2024-02-15T04:51:15;5.68;;;2.00;;
48859;SDS011;34679;51.436;-2.518;2024-02-15T04:53:44;5.25;;;2.88;;
48859;SDS011;34679;51.436;-2.518;2024-02-15T04:56:11;7.10;;;2.45;;
48859;SDS011;34679;51.436;-2.518;2024-02-15T04:58:41;3.97;;;2.38;;
48859;SDS011;34679;51.436;-2.518;2024-02-15T05:01:14;3.47;;;2.20;;
48859;SDS011;34679;51.436;-2.518;2024-02-15T05:03:40;4.85;;;1.88;;
48859;SDS011;34679;51.436;-2.518;2024-02-15T05:06:07;5.90;;;2.13;;
48859;SDS011;34679;51.436;-2.518;2024-02-15T05:08:33;4.25;;;1.80;;
48859;SDS011;34679;51.436;-2.518;2024-02-15T05:11:01;5.50;;;2.20;;
48859;SDS011;34679;51.436;-2.518;2024-02-15T05:13:29;5.25;;;2.00;;
48859;SDS011;34679;51.436;-2.518;2024-02-15T05:15:55;8.75;;;2.55;;
48859;SDS011;34679;51.436;-2.518;2024-02-15T05:18:21;10.25;;;2.20;;
48859;SDS011;34679;51.436;-2.518;2024-02-15T05:20:46;6.50;;;2.40;;
48859;SDS011;34679;51.436;-2.518;2024-02-15T05:23:12;5.95;;;3.47;;
48859;SDS011;34679;51.436;-2.518;2024-02-15T05:25:38;6.15;;;3.15;;
48859;SDS011;34679;51.436;-2.518;2024-02-15T05:28:03;14.55;;;4.18;;
48859;SDS011;34679;51.436;-2.518;2024-02-15T05:30:31;8.65;;;3.75;;
48859;SDS011;34679;51.436;-2.518;2024-02-15T05:32:57;7.78;;;3.78;;
48859;SDS011;34679;51.436;-2.518;2024-02-15T05:35:23;12.85;;;4.47;;
48859;SDS011;34679;51.436;-2.518;2024-02-15T05:37:49;11.10;;;4.63;;
48859;SDS011;34679;51.436;-2.518;2024-02-15T05:40:17;10.63;;;4.80;;
48859;SDS011;34679;51.436;-2.518;2024-02-15T05:42:44;9.85;;;4.20;;
48859;SDS011;34679;51.436;-2.518;2024-02-15T05:47:51;11.82;;;5.80;;
48859;SDS011;34679;51.436;-2.518;2024-02-15T05:50:17;23.55;;;6.15;;
48859;SDS011;34679;51.436;-2.518;2024-02-15T05:52:46;19.10;;;6.78;;
48859;SDS011;34679;51.436;-2.518;2024-02-15T05:55:12;16.38;;;6.63;;
48859;SDS011;34679;51.436;-2.518;2024-02-15T05:57:42;12.60;;;6.95;;
48859;SDS011;34679;51.436;-2.518;2024-02-15T06:00:08;15.18;;;7.10;;
48859;SDS011;34679;51.436;-2.518;2024-02-15T06:02:35;24.80;;;8.70;;
48859;SDS011;34679;51.436;-2.518;2024-02-15T06:05:01;17.80;;;6.75;;
48859;SDS011;34679;51.436;-2.518;2024-02-15T06:07:29;16.48;;;7.78;;
48859;SDS011;34679;51.436;-2.518;2024-02-15T06:09:57;19.75;;;7.95;;
48859;SDS011;34679;51.436;-2.518;2024-02-15T06:12:28;23.48;;;8.93;;
48859;SDS011;34679;51.436;-2.518;2024-02-15T06:14:57;19.85;;;7.32;;
48859;SDS011;34679;51.436;-2.518;2024-02-15T06:17:22;24.75;;;8.10;;
48859;SDS011;34679;51.436;-2.518;2024-02-15T06:19:48;19.13;;;7.72;;
48859;SDS011;34679;51.436;-2.518;2024-02-15T06:22:13;21.75;;;8.85;;
48859;SDS011;34679;51.436;-2.518;2024-02-15T06:24:39;26.17;;;7.78;;
48859;SDS011;34679;51.436;-2.518;2024-02-15T06:27:06;24.52;;;9.45;;
48859;SDS011;34679;51.436;-2.518;2024-02-15T06:29:32;32.22;;;8.68;;
48859;SDS011;34679;51.436;-2.518;2024-02-15T06:32:16;26.98;;;8.65;;
48859;SDS011;34679;51.436;-2.518;2024-02-15T06:35:00;31.30;;;8.10;;
48859;SDS011;34679;51.436;-2.518;2024-02-15T06:37:44;24.80;;;8.70;;
48859;SDS011;34679;51.436;-2.518;2024-02-15T06:40:28;31.33;;;7.82;;
48859;SDS011;34679;51.436;-2.518;2024-02-15T06:42:55;24.50;;;7.00;;
48859;SDS011;34679;51.436;-2.518;2024-02-15T06:45:21;26.20;;;6.32;;
48859;SDS011;34679;51.436;-2.518;2024-02-15T06:47:47;23.77;;;5.32;;
48859;SDS011;34679;51.436;-2.518;2024-02-15T06:50:13;22.55;;;6.32;;
48859;SDS011;34679;51.436;-2.518;2024-02-15T06:52:40;17.20;;;6.28;;
48859;SDS011;34679;51.436;-2.518;2024-02-15T06:55:06;25.45;;;4.63;;
48859;SDS011;34679;51.436;-2.518;2024-02-15T06:57:33;18.85;;;4.97;;
48859;SDS011;34679;51.436;-2.518;2024-02-15T07:00:04;21.20;;;4.80;;
48859;SDS011;34679;51.436;-2.518;2024-02-15T07:02:34;27.08;;;5.05;;
48859;SDS011;34679;51.436;-2.518;2024-02-15T07:05:00;22.02;;;5.15;;
48859;SDS011;34679;51.436;-2.518;2024-02-15T07:07:27;24.33;;;6.40;;
48859;SDS011;34679;51.436;-2.518;2024-02-15T07:09:53;21.90;;;5.10;;
48859;SDS011;34679;51.436;-2.518;2024-02-15T07:12:19;27.40;;;5.57;;
48859;SDS011;34679;51.436;-2.518;2024-02-15T07:14:46;20.10;;;6.63;;
48859;SDS011;34679;51.436;-2.518;2024-02-15T07:17:12;18.42;;;5.32;;
48859;SDS011;34679;51.436;-2.518;2024-02-15T07:19:43;14.50;;;5.35;;
48859;SDS011;34679;51.436;-2.518;2024-02-15T07:22:09;19.73;;;5.07;;
48859;SDS011;34679;51.436;-2.518;2024-02-15T07:24:35;16.05;;;4.30;;
48859;SDS011;34679;51.436;-2.518;2024-02-15T07:27:03;17.50;;;4.65;;
48859;SDS011;34679;51.436;-2.518;2024-02-15T07:29:30;18.83;;;4.07;;
48859;SDS011;34679;51.436;-2.518;2024-02-15T07:31:57;15.10;;;3.90;;
48859;SDS011;34679;51.436;-2.518;2024-02-15T07:34:29;21.60;;;4.18;;
48859;SDS011;34679;51.436;-2.518;2024-02-15T07:36:55;22.40;;;4.13;;
48859;SDS011;34679;51.436;-2.518;2024-02-15T07:39:23;18.73;;;3.75;;
48859;SDS011;34679;51.436;-2.518;2024-02-15T07:41:50;12.88;;;3.90;;
48859;SDS011;34679;51.436;-2.518;2024-02-15T07:44:16;13.27;;;4.22;;
48859;SDS011;34679;51.436;-2.518;2024-02-15T07:46:42;14.27;;;4.00;;
48859;SDS011;34679;51.436;-2.518;2024-02-15T07:49:09;29.52;;;4.20;;
48859;SDS011;34679;51.436;-2.518;2024-02-15T07:51:34;15.18;;;3.63;;
48859;SDS011;34679;51.436;-2.518;2024-02-15T07:54:01;10.75;;;4.00;;
48859;SDS011;34679;51.436;-2.518;2024-02-15T07:56:26;17.17;;;3.80;;
48859;SDS011;34679;51.436;-2.518;2024-02-15T07:58:52;13.70;;;3.47;;
48859;SDS011;34679;51.436;-2.518;2024-02-15T08:01:18;16.95;;;4.25;;
48859;SDS011;34679;51.436;-2.518;2024-02-15T08:03:46;13.18;;;3.33;;
48859;SDS011;34679;51.436;-2.518;2024-02-15T08:06:13;10.30;;;3.25;;
48859;SDS011;34679;51.436;-2.518;2024-02-15T08:08:40;18.40;;;4.07;;
48859;SDS011;34679;51.436;-2.518;2024-02-15T08:11:07;7.32;;;2.60;;
48859;SDS011;34679;51.436;-2.518;2024-02-15T08:13:49;13.10;;;4.43;;
48859;SDS011;34679;51.436;-2.518;2024-02-15T08:16:19;7.35;;;2.97;;
48859;SDS011;34679;51.436;-2.518;2024-02-15T08:18:47;14.43;;;3.45;;
48859;SDS011;34679;51.436;-2.518;2024-02-15T08:21:17;18.33;;;3.45;;
48859;SDS011;34679;51.436;-2.518;2024-02-15T08:23:43;16.23;;;3.75;;
48859;SDS011;34679;51.436;-2.518;2024-02-15T08:26:09;11.15;;;3.00;;
48859;SDS011;34679;51.436;-2.518;2024-02-15T08:28:38;16.08;;;3.38;;
48859;SDS011;34679;51.436;-2.518;2024-02-15T08:31:04;21.48;;;3.45;;
48859;SDS011;34679;51.436;-2.518;2024-02-15T08:33:30;13.00;;;3.00;;
48859;SDS011;34679;51.436;-2.518;2024-02-15T08:35:56;11.77;;;3.03;;
48859;SDS011;34679;51.436;-2.518;2024-02-15T08:38:22;12.43;;;3.58;;
48859;SDS011;34679;51.436;-2.518;2024-02-15T08:40:48;9.02;;;2.47;;
48859;SDS011;34679;51.436;-2.518;2024-02-15T08:43:14;16.15;;;4.00;;
48859;SDS011;34679;51.436;-2.518;2024-02-15T08:45:43;11.85;;;3.20;;
48859;SDS011;34679;51.436;-2.518;2024-02-15T08:48:08;12.13;;;2.58;;
48859;SDS011;34679;51.436;-2.518;2024-02-15T08:50:34;14.48;;;2.47;;
48859;SDS011;34679;51.436;-2.518;2024-02-15T08:53:00;11.20;;;2.83;;
48859;SDS011;34679;51.436;-2.518;2024-02-15T08:55:26;14.43;;;2.88;;
48859;SDS011;34679;51.436;-2.518;2024-02-15T08:57:53;12.55;;;2.78;;
48859;SDS011;34679;51.436;-2.518;2024-02-15T09:00:19;9.13;;;2.60;;
48859;SDS011;34679;51.436;-2.518;2024-02-15T09:02:45;9.45;;;2.50;;
48859;SDS011;34679;51.436;-2.518;2024-02-15T09:05:12;10.52;;;1.98;;
48859;SDS011;34679;51.436;-2.518;2024-02-15T09:07:42;8.43;;;2.38;;
48859;SDS011;34679;51.436;-2.518;2024-02-15T09:10:09;10.27;;;2.30;;
48859;SDS011;34679;51.436;-2.518;2024-02-15T09:12:39;13.07;;;2.75;;
48859;SDS011;34679;51.436;-2.518;2024-02-15T09:15:09;10.13;;;2.83;;
48859;SDS011;34679;51.436;-2.518;2024-02-15T09:17:41;11.98;;;2.17;;
48859;SDS011;34679;51.436;-2.518;2024-02-15T09:20:09;9.93;;;2.38;;
48859;SDS011;34679;51.436;-2.518;2024-02-15T09:22:49;10.75;;;2.95;;
48859;SDS011;34679;51.436;-2.518;2024-02-15T09:25:16;8.75;;;2.42;;
48859;SDS011;34679;51.436;-2.518;2024-02-15T09:27:42;6.22;;;2.22;;
48859;SDS011;34679;51.436;-2.518;2024-02-15T09:30:08;13.30;;;2.70;;
48859;SDS011;34679;51.436;-2.518;2024-02-15T09:32:38;9.48;;;2.30;;
48859;SDS011;34679;51.436;-2.518;2024-02-15T09:35:04;11.90;;;2.42;;
48859;SDS011;34679;51.436;-2.518;2024-02-15T09:37:44;7.78;;;3.05;;
48859;SDS011;34679;51.436;-2.518;2024-02-15T09:40:11;7.82;;;2.78;;
48859;SDS011;34679;51.436;-2.518;2024-02-15T09:42:38;6.55;;;2.22;;
48859;SDS011;34679;51.436;-2.518;2024-02-15T09:45:08;12.85;;;2.65;;
48859;SDS011;34679;51.436;-2.518;2024-02-15T09:47:41;10.05;;;3.38;;
48859;SDS011;34679;51.436;-2.518;2024-02-15T09:52:36;10.68;;;2.42;;
48859;SDS011;34679;51.436;-2.518;2024-02-15T09:55:05;6.10;;;2.08;;
48859;SDS011;34679;51.436;-2.518;2024-02-15T09:57:38;6.97;;;2.42;;
48859;SDS011;34679;51.436;-2.518;2024-02-15T10:00:04;9.57;;;2.85;;
48859;SDS011;34679;51.436;-2.518;2024-02-15T10:02:32;11.10;;;2.72;;
48859;SDS011;34679;51.436;-2.518;2024-02-15T10:05:02;11.20;;;3.05;;
48859;SDS011;34679;51.436;-2.518;2024-02-15T10:07:28;10.27;;;3.17;;
48859;SDS011;34679;51.436;-2.518;2024-02-15T10:09:54;12.75;;;2.95;;
48859;SDS011;34679;51.436;-2.518;2024-02-15T10:12:20;6.55;;;1.98;;
48859;SDS011;34679;51.436;-2.518;2024-02-15T10:14:49;16.58;;;4.63;;
48859;SDS011;34679;51.436;-2.518;2024-02-15T10:17:17;4.38;;;1.90;;
48859;SDS011;34679;51.436;-2.518;2024-02-15T10:19:44;10.93;;;2.55;;
48859;SDS011;34679;51.436;-2.518;2024-02-15T10:22:12;10.25;;;3.28;;
48859;SDS011;34679;51.436;-2.518;2024-02-15T10:24:39;6.20;;;2.72;;
48859;SDS011;34679;51.436;-2.518;2024-02-15T10:27:06;8.07;;;2.53;;
48859;SDS011;34679;51.436;-2.518;2024-02-15T10:29:32;6.20;;;2.03;;
48859;SDS011;34679;51.436;-2.518;2024-02-15T10:32:00;12.20;;;2.92;;
48859;SDS011;34679;51.436;-2.518;2024-02-15T10:34:27;8.13;;;2.47;;
48859;SDS011;34679;51.436;-2.518;2024-02-15T10:36:55;11.05;;;2.65;;
48859;SDS011;34679;51.436;-2.518;2024-02-15T10:39:36;10.40;;;2.78;;
48859;SDS011;34679;51.436;-2.518;2024-02-15T10:42:02;7.65;;;2.28;;
48859;SDS011;34679;51.436;-2.518;2024-02-15T10:44:31;9.38;;;2.20;;
48859;SDS011;34679;51.436;-2.518;2024-02-15T10:46:59;9.40;;;2.97;;
48859;SDS011;34679;51.436;-2.518;2024-02-15T10:49:31;9.57;;;2.70;;
48859;SDS011;34679;51.436;-2.518;2024-02-15T10:52:00;8.77;;;3.13;;
48859;SDS011;34679;51.436;-2.518;2024-02-15T10:57:21;12.98;;;2.47;;
48859;SDS011;34679;51.436;-2.518;2024-02-15T10:59:56;7.25;;;2.20;;
48859;SDS011;34679;51.436;-2.518;2024-02-15T11:04:52;7.85;;;2.33;;
48859;SDS011;34679;51.436;-2.518;2024-02-15T11:07:23;12.65;;;2.03;;
48859;SDS011;34679;51.436;-2.518;2024-02-15T11:09:51;14.55;;;2.90;;
48859;SDS011;34679;51.436;-2.518;2024-02-15T11:12:17;7.80;;;2.45;;
48859;SDS011;34679;51.436;-2.518;2024-02-15T11:14:44;6.45;;;2.03;;
48859;SDS011;34679;51.436;-2.518;2024-02-15T11:17:10;4.00;;;1.85;;
48859;SDS011;34679;51.436;-2.518;2024-02-15T11:22:14;9.35;;;2.20;;
48859;SDS011;34679;51.436;-2.518;2024-02-15T11:27:12;8.03;;;2.20;;
48859;SDS011;34679;51.436;-2.518;2024-02-15T11:29:56;4.78;;;2.45;;
48859;SDS011;34679;51.436;-2.518;2024-02-15T11:32:47;13.48;;;3.08;;
48859;SDS011;34679;51.436;-2.518;2024-02-15T11:35:20;3.78;;;2.15;;
48859;SDS011;34679;51.436;-2.518;2024-02-15T11:40:16;6.38;;;2.38;;
48859;SDS011;34679;51.436;-2.518;2024-02-15T11:42:53;9.85;;;2.55;;
48859;SDS011;34679;51.436;-2.518;2024-02-15T11:45:20;4.80;;;2.20;;
48859;SDS011;34679;51.436;-2.518;2024-02-15T11:47:49;6.82;;;2.53;;
48859;SDS011;34679;51.436;-2.518;2024-02-15T11:50:20;7.97;;;3.22;;
48859;SDS011;34679;51.436;-2.518;2024-02-15T11:52:47;6.43;;;2.60;;
48859;SDS011;34679;51.436;-2.518;2024-02-15T11:55:14;6.22;;;2.70;;
48859;SDS011;34679;51.436;-2.518;2024-02-15T11:57:53;5.65;;;2.10;;
48859;SDS011;34679;51.436;-2.518;2024-02-15T12:00:30;6.25;;;2.38;;
48859;SDS011;34679;51.436;-2.518;2024-02-15T12:03:15;9.60;;;2.25;;
48859;SDS011;34679;51.436;-2.518;2024-02-15T12:05:59;7.07;;;2.28;;
48859;SDS011;34679;51.436;-2.518;2024-02-15T12:08:47;10.02;;;2.67;;
48859;SDS011;34679;51.436;-2.518;2024-02-15T12:11:32;9.02;;;2.40;;
48859;SDS011;34679;51.436;-2.518;2024-02-15T12:14:16;9.07;;;3.30;;
48859;SDS011;34679;51.436;-2.518;2024-02-15T12:17:05;7.75;;;2.28;;
48859;SDS011;34679;51.436;-2.518;2024-02-15T12:19:57;3.33;;;2.08;;
48859;SDS011;34679;51.436;-2.518;2024-02-15T12:22:32;5.43;;;2.40;;
48859;SDS011;34679;51.436;-2.518;2024-02-15T12:25:01;8.35;;;2.55;;
48859;SDS011;34679;51.436;-2.518;2024-02-15T12:27:45;9.30;;;2.70;;
48859;SDS011;34679;51.436;-2.518;2024-02-15T12:30:17;8.85;;;2.30;;
48859;SDS011;34679;51.436;-2.518;2024-02-15T12:32:49;8.90;;;2.40;;
48859;SDS011;34679;51.436;-2.518;2024-02-15T12:35:16;7.85;;;2.50;;
48859;SDS011;34679;51.436;-2.518;2024-02-15T12:38:04;4.85;;;2.10;;
48859;SDS011;34679;51.436;-2.518;2024-02-15T12:40:34;10.48;;;3.08;;
48859;SDS011;34679;51.436;-2.518;2024-02-15T12:43:01;6.53;;;2.20;;
48859;SDS011;34679;51.436;-2.518;2024-02-15T12:45:30;6.60;;;2.40;;
48859;SDS011;34679;51.436;-2.518;2024-02-15T12:47:57;4.50;;;1.90;;
48859;SDS011;34679;51.436;-2.518;2024-02-15T12:50:25;8.40;;;2.80;;
48859;SDS011;34679;51.436;-2.518;2024-02-15T12:52:53;8.27;;;2.67;;
48859;SDS011;34679;51.436;-2.518;2024-02-15T12:55:28;6.85;;;2.45;;
48859;SDS011;34679;51.436;-2.518;2024-02-15T12:58:01;11.23;;;2.85;;
48859;SDS011;34679;51.436;-2.518;2024-02-15T13:00:35;11.43;;;2.35;;
48859;SDS011;34679;51.436;-2.518;2024-02-15T13:03:04;8.93;;;2.80;;
48859;SDS011;34679;51.436;-2.518;2024-02-15T13:05:33;7.40;;;2.53;;
48859;SDS011;34679;51.436;-2.518;2024-02-15T13:07:59;6.40;;;2.72;;
48859;SDS011;34679;51.436;-2.518;2024-02-15T13:10:31;8.52;;;2.40;;
48859;SDS011;34679;51.436;-2.518;2024-02-15T13:12:57;9.45;;;3.08;;
48859;SDS011;34679;51.436;-2.518;2024-02-15T13:15:23;9.18;;;2.92;;
48859;SDS011;34679;51.436;-2.518;2024-02-15T13:17:57;6.72;;;2.25;;
48859;SDS011;34679;51.436;-2.518;2024-02-15T13:20:23;5.40;;;2.95;;
48859;SDS011;34679;51.436;-2.518;2024-02-15T13:22:57;9.02;;;2.75;;
48859;SDS011;34679;51.436;-2.518;2024-02-15T13:25:47;7.50;;;2.30;;
48859;SDS011;34679;51.436;-2.518;2024-02-15T13:28:15;11.40;;;2.80;;
48859;SDS011;34679;51.436;-2.518;2024-02-15T13:30:41;9.45;;;2.83;;
48859;SDS011;34679;51.436;-2.518;2024-02-15T13:33:10;9.18;;;2.75;;
48859;SDS011;34679;51.436;-2.518;2024-02-15T13:35:38;8.30;;;2.50;;
48859;SDS011;34679;51.436;-2.518;2024-02-15T13:38:04;9.43;;;2.53;;
48859;SDS011;34679;51.436;-2.518;2024-02-15T13:40:30;8.93;;;2.50;;
48859;SDS011;34679;51.436;-2.518;2024-02-15T13:43:00;9.10;;;2.50;;
48859;SDS011;34679;51.436;-2.518;2024-02-15T13:45:38;6.15;;;2.50;;
48859;SDS011;34679;51.436;-2.518;2024-02-15T13:48:05;12.15;;;2.85;;
48859;SDS011;34679;51.436;-2.518;2024-02-15T13:50:35;14.75;;;3.35;;
48859;SDS011;34679;51.436;-2.518;2024-02-15T13:53:01;7.35;;;2.55;;
48859;SDS011;34679;51.436;-2.518;2024-02-15T13:55:28;10.40;;;3.15;;
48859;SDS011;34679;51.436;-2.518;2024-02-15T13:57:55;12.65;;;3.05;;
48859;SDS011;34679;51.436;-2.518;2024-02-15T14:00:26;12.25;;;3.13;;
48859;SDS011;34679;51.436;-2.518;2024-02-15T14:02:55;13.40;;;4.03;;
48859;SDS011;34679;51.436;-2.518;2024-02-15T14:05:23;6.68;;;2.67;;
48859;SDS011;34679;51.436;-2.518;2024-02-15T14:07:51;9.18;;;3.00;;
48859;SDS011;34679;51.436;-2.518;2024-02-15T14:10:20;12.32;;;2.72;;
48859;SDS011;34679;51.436;-2.518;2024-02-15T14:12:46;9.07;;;3.05;;
48859;SDS011;34679;51.436;-2.518;2024-02-15T14:15:14;8.82;;;2.83;;
48859;SDS011;34679;51.436;-2.518;2024-02-15T14:17:42;10.80;;;3.10;;
48859;SDS011;34679;51.436;-2.518;2024-02-15T14:20:09;13.60;;;2.70;;
48859;SDS011;34679;51.436;-2.518;2024-02-15T14:22:39;11.88;;;2.92;;
48859;SDS011;34679;51.436;-2.518;2024-02-15T14:25:05;12.55;;;2.47;;
48859;SDS011;34679;51.436;-2.518;2024-02-15T14:27:32;14.02;;;2.75;;
48859;SDS011;34679;51.436;-2.518;2024-02-15T14:29:58;13.13;;;3.35;;
48859;SDS011;34679;51.436;-2.518;2024-02-15T14:32:43;13.15;;;3.40;;
48859;SDS011;34679;51.436;-2.518;2024-02-15T14:37:55;13.40;;;3.05;;
48859;SDS011;34679;51.436;-2.518;2024-02-15T14:40:27;10.60;;;3.08;;
48859;SDS011;34679;51.436;-2.518;2024-02-15T14:42:53;21.25;;;4.10;;
48859;SDS011;34679;51.436;-2.518;2024-02-15T14:45:19;9.10;;;3.13;;
48859;SDS011;34679;51.436;-2.518;2024-02-15T14:47:45;11.07;;;3.75;;
48859;SDS011;34679;51.436;-2.518;2024-02-15T14:50:12;12.90;;;2.90;;
48859;SDS011;34679;51.436;-2.518;2024-02-15T14:52:38;17.13;;;3.53;;
48859;SDS011;34679;51.436;-2.518;2024-02-15T14:55:04;16.60;;;3.58;;
48859;SDS011;34679;51.436;-2.518;2024-02-15T14:57:32;12.02;;;3.08;;
48859;SDS011;34679;51.436;-2.518;2024-02-15T14:59:59;11.98;;;3.13;;